createdAt,value
2022-09-15T00:02:07.301Z,86351.80
2022-09-15T00:04:36.828Z,86351.40
2022-09-15T00:07:06.650Z,86346.40
2022-09-15T00:09:37.149Z,86347.00
2022-09-15T00:12:07.117Z,86350.00
2022-09-15T00:14:36.744Z,86349.00
2022-09-15T00:17:06.287Z,86342.40
2022-09-15T00:19:36.031Z,86342.00
2022-09-15T00:22:05.833Z,86338.20
2022-09-15T00:24:35.441Z,86336.60
2022-09-15T00:27:05.430Z,86335.40
2022-09-15T00:29:35.249Z,86337.20
2022-09-15T00:32:05.434Z,86336.60
2022-09-15T00:34:35.772Z,86337.20
2022-09-15T00:37:05.870Z,86340.80
2022-09-15T00:39:35.452Z,86340.40
2022-09-15T00:42:06.340Z,86339.80
2022-09-15T00:44:38.681Z,86345.40
2022-09-15T00:47:19.294Z,86345.20
2022-09-15T00:49:59.182Z,86338.40
2022-09-15T00:52:40.089Z,86341.60
2022-09-15T00:55:17.097Z,86341.00
2022-09-15T00:58:09.953Z,86343.00
2022-09-15T01:00:45.257Z,86344.80
2022-09-15T01:03:15.141Z,86345.20
2022-09-15T01:05:54.688Z,86342.40
2022-09-15T01:09:10.346Z,86345.00
2022-09-15T01:11:41.271Z,86345.80
2022-09-15T01:14:10.997Z,86349.40
2022-09-15T01:17:05.093Z,86353.00
2022-09-15T01:19:46.348Z,86351.80
2022-09-15T01:22:42.677Z,86358.60
2022-09-15T01:25:29.916Z,86358.60
2022-09-15T01:28:43.855Z,86362.60
2022-09-15T01:31:24.737Z,86357.20
2022-09-15T01:34:11.131Z,86354.60
2022-09-15T01:36:56.606Z,86355.40
2022-09-15T01:39:33.488Z,86355.40
2022-09-15T01:42:09.899Z,86356.40
2022-09-15T01:44:59.966Z,86355.00
2022-09-15T01:47:32.177Z,86356.60
2022-09-15T01:50:27.730Z,86358.80
2022-09-15T01:53:04.041Z,86361.60
2022-09-15T01:55:45.621Z,86363.40
2022-09-15T01:58:14.764Z,86368.80
2022-09-15T02:00:52.388Z,86371.40
2022-09-15T02:03:41.708Z,86368.40
2022-09-15T02:06:25.745Z,86372.40
2022-09-15T02:09:19.116Z,86371.80
2022-09-15T02:12:22.027Z,86364.40
2022-09-15T02:15:16.024Z,86370.20
2022-09-15T02:17:56.397Z,86373.00
2022-09-15T02:21:00.486Z,86375.60
2022-09-15T02:23:42.239Z,86375.40
2022-09-15T02:26:18.749Z,86370.80
2022-09-15T02:28:50.561Z,86374.80
2022-09-15T02:31:24.229Z,86377.60
2022-09-15T02:34:04.881Z,86379.80
2022-09-15T02:36:34.856Z,86375.40
2022-09-15T02:39:13.616Z,86373.40
2022-09-15T02:41:43.343Z,86378.40
2022-09-15T02:44:17.050Z,86381.80
2022-09-15T02:46:46.706Z,86380.80
2022-09-15T02:49:15.842Z,86385.40
2022-09-15T02:51:48.676Z,86382.00
2022-09-15T02:54:20.884Z,86384.00
2022-09-15T02:56:50.319Z,86376.40
2022-09-15T02:59:20.212Z,86380.40
2022-09-15T03:01:49.475Z,86382.20
2022-09-15T03:04:18.653Z,86374.60
2022-09-15T03:06:48.017Z,86376.80
2022-09-15T03:09:17.427Z,86372.40
2022-09-15T03:11:46.753Z,86370.20
2022-09-15T03:14:16.164Z,86370.80
2022-09-15T03:16:45.577Z,86370.40
2022-09-15T03:19:15.027Z,86370.00
2022-09-15T03:21:44.614Z,86371.00
2022-09-15T03:24:16.599Z,86372.00
2022-09-15T03:26:46.733Z,86371.00
2022-09-15T03:29:16.345Z,86371.80
2022-09-15T03:31:45.686Z,86376.60
2022-09-15T03:34:15.209Z,86380.20
2022-09-15T03:36:44.577Z,86380.80
2022-09-15T03:39:17.004Z,86382.40
2022-09-15T03:41:46.227Z,86385.60
2022-09-15T03:44:15.381Z,86388.60
2022-09-15T03:46:44.481Z,86398.20
2022-09-15T03:49:14.441Z,86402.00
2022-09-15T03:51:43.688Z,86401.80
2022-09-15T03:54:13.654Z,86412.80
2022-09-15T03:56:43.053Z,86417.60
2022-09-15T03:59:12.586Z,86417.40
2022-09-15T04:01:41.658Z,86422.80
2022-09-15T04:04:11.797Z,86429.80
2022-09-15T04:06:42.285Z,86448.80
2022-09-15T04:09:11.633Z,86455.40
2022-09-15T04:11:41.599Z,86468.80
2022-09-15T04:14:10.956Z,86471.00
2022-09-15T04:16:40.811Z,86463.00
2022-09-15T04:19:10.438Z,86485.20
2022-09-15T04:21:43.475Z,86483.20
2022-09-15T04:24:12.673Z,86477.80
2022-09-15T04:26:42.141Z,86480.00
2022-09-15T04:29:17.438Z,86483.80
2022-09-15T04:31:47.839Z,86477.20
2022-09-15T04:34:16.961Z,86476.40
2022-09-15T04:36:46.447Z,86468.20
2022-09-15T04:39:16.316Z,86460.40
2022-09-15T04:41:45.381Z,86460.40
2022-09-15T04:44:14.565Z,86465.60
2022-09-15T04:46:44.039Z,86478.40
2022-09-15T04:49:13.927Z,86480.40
2022-09-15T04:51:43.161Z,86479.20
2022-09-15T04:54:12.349Z,86479.20
2022-09-15T04:56:41.616Z,86481.80
2022-09-15T04:59:18.404Z,86485.40
2022-09-15T05:01:48.774Z,86474.60
2022-09-15T05:04:17.842Z,86470.80
2022-09-15T05:06:47.145Z,86477.20
2022-09-15T05:09:16.903Z,86477.40
2022-09-15T05:11:46.161Z,86475.40
2022-09-15T05:14:15.634Z,86470.80
2022-09-15T05:16:45.169Z,86469.00
2022-09-15T05:19:14.522Z,86463.80
2022-09-15T05:21:44.340Z,86466.00
2022-09-15T05:24:13.442Z,86466.40
2022-09-15T05:26:42.875Z,86468.80
2022-09-15T05:29:11.974Z,86465.60
2022-09-15T05:31:41.134Z,86461.40
2022-09-15T05:34:11.539Z,86462.00
2022-09-15T05:36:40.694Z,86461.80
2022-09-15T05:39:10.036Z,86459.40
2022-09-15T05:41:39.319Z,86459.20
2022-09-15T05:44:08.387Z,86459.00
2022-09-15T05:46:37.596Z,86459.20
2022-09-15T05:49:07.623Z,86463.80
2022-09-15T05:51:37.738Z,86461.20
2022-09-15T05:54:07.778Z,86452.40
2022-09-15T05:56:36.884Z,86449.80
2022-09-15T05:59:06.261Z,86447.80
2022-09-15T06:01:35.631Z,86451.00
2022-09-15T06:04:04.824Z,86454.40
2022-09-15T06:06:34.718Z,86448.00
2022-09-15T06:09:07.992Z,86445.20
2022-09-15T06:11:37.469Z,86442.00
2022-09-15T06:14:07.192Z,86447.40
2022-09-15T06:16:37.374Z,86446.40
2022-09-15T06:19:07.519Z,86441.20
2022-09-15T06:21:36.862Z,86439.40
2022-09-15T06:24:08.047Z,86438.80
2022-09-15T06:26:38.006Z,86437.40
2022-09-15T06:29:07.869Z,86431.20
2022-09-15T06:31:37.417Z,86432.80
2022-09-15T06:34:07.741Z,86432.00
2022-09-15T06:36:40.086Z,86435.20
2022-09-15T06:39:09.705Z,86430.00
2022-09-15T06:41:58.811Z,86434.00
2022-09-15T06:44:28.527Z,86430.00
2022-09-15T06:46:57.653Z,86433.60
2022-09-15T06:49:27.186Z,86433.80
2022-09-15T06:51:57.742Z,86430.60
2022-09-15T06:54:26.968Z,86439.60
2022-09-15T06:56:56.113Z,86443.80
2022-09-15T06:59:25.705Z,86438.40
2022-09-15T07:01:57.127Z,86434.40
2022-09-15T07:04:26.912Z,86432.80
2022-09-15T07:06:56.507Z,86431.00
2022-09-15T07:09:25.655Z,86433.60
2022-09-15T07:11:55.140Z,86429.40
2022-09-15T07:14:24.343Z,86433.80
2022-09-15T07:16:53.461Z,86432.00
2022-09-15T07:19:22.842Z,86434.00
2022-09-15T07:21:53.869Z,86428.80
2022-09-15T07:24:23.030Z,86433.60
2022-09-15T07:26:53.090Z,86429.80
2022-09-15T07:29:22.541Z,86431.00
2022-09-15T07:31:51.979Z,86430.00
2022-09-15T07:34:22.338Z,86434.60
2022-09-15T07:36:51.915Z,86431.60
2022-09-15T07:39:21.017Z,86428.40
2022-09-15T07:41:50.207Z,86428.20
2022-09-15T07:44:19.377Z,86428.40
2022-09-15T07:46:48.589Z,86427.80
2022-09-15T07:49:18.023Z,86435.00
2022-09-15T07:51:47.703Z,86439.20
2022-09-15T07:54:21.083Z,86438.40
2022-09-15T07:56:51.856Z,86446.60
2022-09-15T07:59:21.002Z,86457.40
2022-09-15T08:01:53.373Z,86461.20
2022-09-15T08:04:22.732Z,86467.40
2022-09-15T08:06:53.615Z,86467.40
2022-09-15T08:09:23.041Z,86463.80
2022-09-15T08:11:52.272Z,86472.80
2022-09-15T08:14:21.326Z,86491.40
2022-09-15T08:16:50.624Z,86506.60
2022-09-15T08:19:21.910Z,86513.80
2022-09-15T08:21:51.012Z,86508.00
2022-09-15T08:24:20.252Z,86496.20
2022-09-15T08:26:49.656Z,86477.20
2022-09-15T08:29:20.701Z,86466.80
2022-09-15T08:31:50.253Z,86459.00
2022-09-15T08:34:19.986Z,86462.80
2022-09-15T08:36:49.323Z,86472.00
2022-09-15T08:39:19.267Z,86467.80
2022-09-15T08:41:53.121Z,86455.40
2022-09-15T08:44:51.500Z,86452.40
2022-09-15T08:47:42.428Z,86457.60
2022-09-15T08:50:36.877Z,86457.40
2022-09-15T08:53:30.491Z,86456.20
2022-09-15T08:56:09.888Z,86450.80
2022-09-15T08:58:40.142Z,86443.80
2022-09-15T09:01:52.142Z,86443.40
2022-09-15T09:04:59.370Z,86456.60
2022-09-15T09:08:35.394Z,86461.60
2022-09-15T09:12:04.946Z,86455.00
2022-09-15T09:15:07.678Z,86459.00
2022-09-15T09:18:11.090Z,86451.40
2022-09-15T09:20:50.965Z,86451.20
2022-09-15T09:23:29.199Z,86449.80
2022-09-15T09:25:59.731Z,86448.00
2022-09-15T09:28:47.038Z,86435.60
2022-09-15T09:31:24.339Z,86428.60
2022-09-15T09:34:17.710Z,86431.80
2022-09-15T09:36:46.935Z,86435.40
2022-09-15T09:39:16.914Z,86437.20
2022-09-15T09:41:47.162Z,86434.20
2022-09-15T09:44:16.967Z,86431.20
2022-09-15T09:46:47.789Z,86425.80
2022-09-15T09:49:35.610Z,86426.40
2022-09-15T09:52:06.110Z,86427.60
2022-09-15T09:54:37.024Z,86426.00
2022-09-15T09:57:15.584Z,86421.80
2022-09-15T09:59:50.912Z,86418.40
2022-09-15T10:02:22.716Z,86423.80
2022-09-15T10:05:19.742Z,86424.80
2022-09-15T10:07:49.779Z,86419.80
2022-09-15T10:10:33.519Z,86426.20
2022-09-15T10:13:05.478Z,86428.80
2022-09-15T10:15:38.053Z,86431.60
2022-09-15T10:18:07.953Z,86431.00
2022-09-15T10:20:50.956Z,86434.20
2022-09-15T10:23:19.943Z,86432.60
2022-09-15T10:25:59.183Z,86426.80
2022-09-15T10:28:30.435Z,86427.20
2022-09-15T10:31:08.484Z,86426.40
2022-09-15T10:33:42.892Z,86422.20
2022-09-15T10:36:29.969Z,86423.40
2022-09-15T10:40:01.711Z,86422.00
2022-09-15T10:42:57.859Z,86420.20
2022-09-15T10:45:29.232Z,86419.20
2022-09-15T10:48:13.046Z,86414.60
2022-09-15T10:50:42.404Z,86417.20
2022-09-15T10:53:45.863Z,86416.00
2022-09-15T10:56:38.320Z,86414.20
2022-09-15T10:59:36.595Z,86416.80
2022-09-15T11:02:27.476Z,86415.60
2022-09-15T11:05:24.891Z,86419.80
2022-09-15T11:08:42.128Z,86413.80
2022-09-15T11:11:35.508Z,86411.80
2022-09-15T11:14:34.892Z,86413.60
2022-09-15T11:17:44.546Z,86408.20
2022-09-15T11:20:36.354Z,86408.80
2022-09-15T11:23:29.919Z,86409.40
2022-09-15T11:26:09.353Z,86407.20
2022-09-15T11:29:18.942Z,86410.20
2022-09-15T11:31:56.644Z,86410.80
2022-09-15T11:35:10.098Z,86408.20
2022-09-15T11:37:47.214Z,86414.80
2022-09-15T11:40:29.882Z,86412.80
2022-09-15T11:43:18.698Z,86412.40
2022-09-15T11:45:57.869Z,86417.60
2022-09-15T11:48:43.613Z,86417.60
2022-09-15T11:51:17.014Z,86412.80
2022-09-15T11:54:32.821Z,86413.20
2022-09-15T11:57:02.259Z,86410.60
2022-09-15T11:59:45.588Z,86411.60
2022-09-15T12:02:46.081Z,86410.60
2022-09-15T12:05:59.307Z,86412.80
2022-09-15T12:08:33.605Z,86408.40
2022-09-15T12:11:10.428Z,86409.20
2022-09-15T12:13:42.527Z,86404.20
2022-09-15T12:16:13.462Z,86409.80
2022-09-15T12:19:13.425Z,86408.60
2022-09-15T12:22:16.221Z,86413.00
2022-09-15T12:25:23.598Z,86411.60
2022-09-15T12:28:23.944Z,86411.60
2022-09-15T12:31:26.601Z,86413.40
2022-09-15T12:34:36.253Z,86416.00
2022-09-15T12:37:16.437Z,86420.80
2022-09-15T12:39:48.641Z,86419.00
2022-09-15T12:42:32.974Z,86417.00
2022-09-15T12:45:26.536Z,86428.40
2022-09-15T12:48:17.334Z,86425.40
2022-09-15T12:51:06.288Z,86427.40
2022-09-15T12:53:50.549Z,86423.20
2022-09-15T12:56:35.539Z,86424.00
2022-09-15T12:59:16.912Z,86422.60
2022-09-15T13:01:52.778Z,86422.60
2022-09-15T13:04:47.522Z,86424.20
2022-09-15T13:07:22.129Z,86428.20
2022-09-15T13:10:11.768Z,86425.60
2022-09-15T13:12:50.838Z,86427.40
2022-09-15T13:15:21.681Z,86429.40
2022-09-15T13:17:51.942Z,86434.20
2022-09-15T13:20:32.014Z,86434.80
2022-09-15T13:23:04.754Z,86433.80
2022-09-15T13:25:34.973Z,86437.00
2022-09-15T13:28:05.713Z,86440.20
2022-09-15T13:31:08.885Z,86440.20
2022-09-15T13:40:50.650Z,86447.00
2022-09-15T13:43:41.144Z,86452.20
2022-09-15T13:46:42.420Z,86453.00
2022-09-15T13:49:46.278Z,86455.20
2022-09-15T13:53:01.559Z,86457.60
2022-09-15T13:55:36.180Z,86457.40
2022-09-15T14:01:12.445Z,86461.20
2022-09-15T14:03:47.644Z,86464.00
2022-09-15T14:06:28.219Z,86462.20
2022-09-15T14:09:05.753Z,86467.20
2022-09-15T14:11:39.042Z,86460.40
2022-09-15T14:14:40.491Z,86463.00
2022-09-15T14:17:25.054Z,86462.60
2022-09-15T14:19:57.484Z,86461.60
2022-09-15T14:22:36.401Z,86460.00
2022-09-15T14:25:21.130Z,86462.40
2022-09-15T14:27:54.499Z,86459.60
2022-09-15T14:30:33.379Z,86461.40
2022-09-15T14:33:05.092Z,86460.00
2022-09-15T14:35:40.737Z,86463.80
2022-09-15T14:38:27.485Z,86460.60
2022-09-15T14:41:00.545Z,86459.60
2022-09-15T14:43:36.636Z,86462.40
2022-09-15T14:46:21.891Z,86455.00
2022-09-15T14:48:51.652Z,86455.60
2022-09-15T14:51:34.265Z,86452.40
2022-09-15T14:54:05.833Z,86451.80
2022-09-15T14:56:38.794Z,86452.20
2022-09-15T14:59:20.176Z,86451.00
2022-09-15T15:02:39.631Z,86445.20
2022-09-15T15:05:20.426Z,86440.00
2022-09-15T15:07:51.104Z,86437.20
2022-09-15T15:10:35.918Z,86432.20
2022-09-15T15:13:18.683Z,86432.80
2022-09-15T15:15:48.445Z,86426.20
2022-09-15T15:18:40.345Z,86419.60
2022-09-15T15:21:38.076Z,86422.40
2022-09-15T15:24:20.577Z,86426.00
2022-09-15T15:26:52.206Z,86428.40
2022-09-15T15:29:44.090Z,86431.80
2022-09-15T15:32:21.827Z,86431.00
2022-09-15T15:35:02.663Z,86422.00
2022-09-15T15:37:36.517Z,86418.40
2022-09-15T15:40:14.555Z,86421.00
2022-09-15T15:43:08.267Z,86416.80
2022-09-15T15:45:51.081Z,86424.40
2022-09-15T15:48:20.262Z,86417.80
2022-09-15T15:50:49.475Z,86417.80
2022-09-15T15:53:18.940Z,86416.00
2022-09-15T15:55:48.138Z,86414.40
2022-09-15T15:58:18.169Z,86412.60
2022-09-15T16:00:51.294Z,86414.20
2022-09-15T16:03:23.018Z,86408.40
2022-09-15T16:06:01.436Z,86411.40
2022-09-15T16:08:35.571Z,86411.80
2022-09-15T16:11:05.899Z,86409.60
2022-09-15T16:13:35.296Z,86410.80
2022-09-15T16:16:17.910Z,86411.00
2022-09-15T16:18:47.600Z,86409.40
2022-09-15T16:21:44.845Z,86404.80
2022-09-15T16:24:17.866Z,86411.20
2022-09-15T16:26:48.640Z,86408.40
2022-09-15T16:29:21.397Z,86405.80
2022-09-15T16:31:51.191Z,86398.80
2022-09-15T16:34:20.706Z,86401.20
2022-09-15T16:36:49.868Z,86399.00
2022-09-15T16:39:22.500Z,86393.40
2022-09-15T16:41:51.751Z,86395.60
2022-09-15T16:44:22.994Z,86397.40
2022-09-15T16:46:52.295Z,86392.00
2022-09-15T16:49:21.644Z,86392.40
2022-09-15T16:51:51.175Z,86390.60
2022-09-15T16:54:23.128Z,86390.00
2022-09-15T16:56:53.121Z,86390.20
2022-09-15T16:59:22.532Z,86387.40
2022-09-15T17:01:52.325Z,86384.60
2022-09-15T17:04:21.612Z,86381.60
2022-09-15T17:06:50.956Z,86385.00
2022-09-15T17:09:20.245Z,86383.80
2022-09-15T17:11:50.038Z,86379.00
2022-09-15T17:14:19.720Z,86380.00
2022-09-15T17:16:53.795Z,86379.20
2022-09-15T17:19:23.448Z,86377.60
2022-09-15T17:21:54.330Z,86372.60
2022-09-15T17:24:23.601Z,86383.40
2022-09-15T17:26:52.937Z,86375.60
2022-09-15T17:29:22.200Z,86369.40
2022-09-15T17:31:51.394Z,86374.20
2022-09-15T17:34:20.636Z,86367.20
2022-09-15T17:36:49.703Z,86364.00
2022-09-15T17:39:19.040Z,86362.00
2022-09-15T17:41:48.479Z,86360.60
2022-09-15T17:44:17.992Z,86364.60
2022-09-15T17:46:47.119Z,86364.00
2022-09-15T17:49:16.561Z,86359.00
2022-09-15T17:51:45.852Z,86362.40
2022-09-15T17:54:15.032Z,86360.20
2022-09-15T17:56:47.227Z,86362.60
2022-09-15T17:59:17.110Z,86357.40
2022-09-15T18:01:46.672Z,86354.80
2022-09-15T18:04:15.976Z,86353.40
2022-09-15T18:06:45.758Z,86353.60
2022-09-15T18:09:16.073Z,86351.40
2022-09-15T18:11:45.509Z,86355.20
2022-09-15T18:14:14.697Z,86349.20
2022-09-15T18:16:44.349Z,86350.40
2022-09-15T18:19:13.371Z,86350.40
2022-09-15T18:21:43.625Z,86352.40
2022-09-15T18:24:17.073Z,86347.20
2022-09-15T18:26:46.825Z,86351.60
2022-09-15T18:29:15.992Z,86352.80
2022-09-15T18:31:45.974Z,86354.00
2022-09-15T18:34:15.351Z,86345.40
2022-09-15T18:36:44.630Z,86345.60
2022-09-15T18:39:13.730Z,86354.00
2022-09-15T18:41:43.446Z,86351.00
2022-09-15T18:44:13.299Z,86356.40
2022-09-15T18:46:42.516Z,86353.00
2022-09-15T18:49:11.737Z,86353.20
2022-09-15T18:51:51.633Z,86354.20
2022-09-15T18:54:21.233Z,86350.40
2022-09-15T18:56:50.401Z,86350.00
2022-09-15T18:59:20.359Z,86351.20
2022-09-15T19:01:49.920Z,86350.80
2022-09-15T19:04:19.087Z,86352.40
2022-09-15T19:06:48.378Z,86352.20
2022-09-15T19:09:17.957Z,86351.80
2022-09-15T19:11:47.158Z,86346.20
2022-09-15T19:14:16.334Z,86345.80
2022-09-15T19:16:57.652Z,86346.40
2022-09-15T19:19:28.254Z,86349.40
2022-09-15T19:21:57.442Z,86350.60
2022-09-15T19:24:33.205Z,86359.40
2022-09-15T19:27:07.500Z,86362.80
2022-09-15T19:29:38.836Z,86363.00
2022-09-15T19:32:12.837Z,86356.20
2022-09-15T19:34:45.772Z,86359.80
2022-09-15T19:37:20.924Z,86363.60
2022-09-15T19:39:51.548Z,86361.80
2022-09-15T19:42:20.672Z,86363.40
2022-09-15T19:44:50.515Z,86365.40
2022-09-15T19:47:20.074Z,86363.40
2022-09-15T19:49:49.310Z,86363.20
2022-09-15T19:52:18.576Z,86361.60
2022-09-15T19:54:49.115Z,86356.40
2022-09-15T19:57:18.521Z,86355.60
2022-09-15T19:59:47.607Z,86354.00
2022-09-15T20:02:17.468Z,86350.60
2022-09-15T20:04:47.585Z,86349.80
2022-09-15T20:07:16.813Z,86353.40
2022-09-15T20:09:46.131Z,86346.20
2022-09-15T20:12:15.436Z,86346.80
2022-09-15T20:14:44.647Z,86349.00
2022-09-15T20:17:14.321Z,86348.00
2022-09-15T20:19:43.589Z,86353.80
2022-09-15T20:22:12.760Z,86348.20
2022-09-15T20:24:42.360Z,86351.00
2022-09-15T20:27:12.271Z,86347.80
2022-09-15T20:29:41.499Z,86350.20
2022-09-15T20:32:11.122Z,86343.80
2022-09-15T20:34:40.621Z,86341.60
2022-09-15T20:37:09.748Z,86343.20
2022-09-15T20:39:39.139Z,86347.00
2022-09-15T20:42:08.414Z,86344.40
2022-09-15T20:44:37.510Z,86348.00
2022-09-15T20:47:06.916Z,86346.60
2022-09-15T20:49:36.067Z,86349.00
2022-09-15T20:52:05.331Z,86348.80
2022-09-15T20:54:35.463Z,86349.60
2022-09-15T20:57:04.698Z,86351.20
2022-09-15T20:59:33.847Z,86348.20
2022-09-15T21:02:06.010Z,86348.20
2022-09-15T21:04:35.687Z,86348.00
2022-09-15T21:07:05.082Z,86345.00
2022-09-15T21:09:37.593Z,86346.80
2022-09-15T21:12:07.154Z,86348.20
2022-09-15T21:14:36.378Z,86346.80
2022-09-15T21:17:05.837Z,86351.80
2022-09-15T21:19:35.474Z,86345.20
2022-09-15T21:22:04.981Z,86343.80
2022-09-15T21:24:34.277Z,86338.60
2022-09-15T21:27:24.299Z,86341.40
2022-09-15T21:29:53.600Z,86343.40
2022-09-15T21:32:23.022Z,86333.40
2022-09-15T21:34:51.994Z,86330.60
2022-09-15T21:37:21.439Z,86327.00
2022-09-15T21:39:51.028Z,86330.80
2022-09-15T21:42:20.897Z,86333.20
2022-09-15T21:44:49.943Z,86330.40
2022-09-15T21:47:20.322Z,86333.60
2022-09-15T21:49:49.622Z,86335.20
2022-09-15T21:52:18.782Z,86328.20
2022-09-15T21:54:48.351Z,86328.60
2022-09-15T21:57:17.665Z,86333.20
2022-09-15T21:59:47.500Z,86335.00
2022-09-15T22:02:18.377Z,86332.80
2022-09-15T22:04:47.792Z,86334.40
2022-09-15T22:07:18.411Z,86334.80
2022-09-15T22:09:48.619Z,86331.80
2022-09-15T22:12:17.799Z,86331.20
2022-09-15T22:14:47.145Z,86333.00
2022-09-15T22:17:16.179Z,86334.40
2022-09-15T22:19:45.365Z,86332.00
2022-09-15T22:22:15.386Z,86330.40
2022-09-15T22:24:44.408Z,86328.40
2022-09-15T22:27:13.501Z,86328.80
2022-09-15T22:29:43.032Z,86325.80
2022-09-15T22:32:11.998Z,86321.60
2022-09-15T22:34:41.168Z,86326.40
2022-09-15T22:37:10.572Z,86323.20
2022-09-15T22:39:57.955Z,86317.80
2022-09-15T22:42:28.681Z,86317.80
2022-09-15T22:44:58.048Z,86319.40
2022-09-15T22:47:27.230Z,86321.40
2022-09-15T22:49:56.594Z,86319.60
2022-09-15T22:52:25.796Z,86320.20
2022-09-15T22:54:54.861Z,86320.00
2022-09-15T22:57:23.863Z,86319.20
2022-09-15T22:59:53.449Z,86319.80
2022-09-15T23:02:23.064Z,86320.20
2022-09-15T23:04:55.373Z,86318.80
2022-09-15T23:07:24.714Z,86315.80
2022-09-15T23:09:54.171Z,86323.00
2022-09-15T23:12:23.547Z,86320.60
2022-09-15T23:14:52.579Z,86323.80
2022-09-15T23:17:21.925Z,86316.60
2022-09-15T23:19:51.390Z,86321.00
2022-09-15T23:22:20.721Z,86325.00
2022-09-15T23:24:50.140Z,86322.20
2022-09-15T23:27:19.581Z,86322.60
2022-09-15T23:29:48.956Z,86320.00
2022-09-15T23:32:18.613Z,86322.40
2022-09-15T23:34:47.960Z,86320.00
2022-09-15T23:37:17.371Z,86321.60
2022-09-15T23:39:46.817Z,86325.20
2022-09-15T23:42:18.920Z,86323.00
2022-09-15T23:44:49.098Z,86320.00
2022-09-15T23:47:18.156Z,86323.40
2022-09-15T23:49:47.428Z,86324.60
2022-09-15T23:52:16.520Z,86322.00
2022-09-15T23:54:49.024Z,86320.60
2022-09-15T23:57:18.291Z,86319.80
2022-09-15T23:59:48.403Z,86313.60
